Time;durP1;ratioP1;P1;durP2;ratioP2;P2;SDS_P1;SDS_P2;PMS_P1;PMS_P2;Temp;Humidity;BMP_temperature;BMP_pressure;BME280_temperature;BME280_humidity;BME280_pressure;Samples;Min_cycle;Max_cycle;Signal;HPM_P1;HPM_P2
2022/03/12 00:00:30;;;;;;;8.53;5.13;;;-0.10;57.10;;;;;;4992444;28;20176;-80
2022/03/12 00:02:58;;;;;;;7.70;6.10;;;-0.10;57.20;;;;;;4992264;28;20188;-80
2022/03/12 00:05:25;;;;;;;11.47;7.30;;;-0.20;57.70;;;;;;4976238;28;20187;-80
2022/03/12 00:07:51;;;;;;;12.40;6.37;;;-0.10;58.10;;;;;;4992201;28;20197;-80
2022/03/12 00:10:21;;;;;;;8.63;5.73;;;-0.10;57.80;;;;;;4975150;28;20236;-80
2022/03/12 00:12:47;;;;;;;7.17;5.00;;;-0.10;57.70;;;;;;4977438;28;20171;-80
2022/03/12 00:15:14;;;;;;;9.40;5.07;;;0.00;57.50;;;;;;4977791;28;20255;-79
2022/03/12 00:17:45;;;;;;;9.90;5.23;;;0.10;56.90;;;;;;4959994;28;20279;-80
2022/03/12 00:20:14;;;;;;;7.00;5.00;;;0.00;57.20;;;;;;4991571;28;20224;-80
2022/03/12 00:22:47;;;;;;;10.40;4.60;;;0.00;57.00;;;;;;4991171;28;20184;-80
2022/03/12 00:25:26;;;;;;;5.93;3.63;;;0.00;56.30;;;;;;4991102;28;20198;-80
2022/03/12 00:27:52;;;;;;;7.57;4.20;;;0.00;56.60;;;;;;4990908;28;20697;-80
2022/03/12 00:30:22;;;;;;;7.00;4.17;;;-0.10;56.90;;;;;;4975340;28;20204;-80
2022/03/12 00:32:53;;;;;;;7.33;4.47;;;-0.20;57.10;;;;;;4991566;28;20260;-80
2022/03/12 00:35:20;;;;;;;10.03;3.80;;;-0.20;57.30;;;;;;4991533;28;20224;-80
2022/03/12 00:37:58;;;;;;;7.13;4.40;;;-0.60;58.30;;;;;;4991374;28;20240;-80
2022/03/12 00:40:23;;;;;;;6.70;4.60;;;-0.60;58.80;;;;;;4975193;28;20197;-80
2022/03/12 00:42:49;;;;;;;6.20;4.17;;;-0.80;59.40;;;;;;4974240;28;20177;-80
2022/03/12 00:45:15;;;;;;;6.07;4.50;;;-0.60;59.40;;;;;;4958490;28;20180;-79
2022/03/12 00:47:41;;;;;;;6.83;4.90;;;-0.50;59.30;;;;;;4991361;28;20205;-80
2022/03/12 00:50:07;;;;;;;6.07;4.43;;;-0.30;59.20;;;;;;4975281;28;20187;-79
2022/03/12 00:52:33;;;;;;;10.57;5.87;;;-0.30;59.10;;;;;;4974279;28;20181;-80
2022/03/12 00:54:58;;;;;;;11.10;6.73;;;-0.30;58.30;;;;;;4975765;28;20288;-80
2022/03/12 00:57:24;;;;;;;14.17;6.53;;;-0.30;58.30;;;;;;4974381;28;20204;-80
2022/03/12 00:59:49;;;;;;;6.87;4.57;;;-0.30;58.40;;;;;;4974166;28;20205;-80
2022/03/12 01:02:25;;;;;;;15.77;4.73;;;-0.40;57.70;;;;;;4958237;28;20267;-80
2022/03/12 01:04:59;;;;;;;6.10;3.90;;;-0.50;58.10;;;;;;4975599;28;20650;-80
2022/03/12 01:07:24;;;;;;;12.60;7.60;;;-0.40;58.20;;;;;;4974046;28;20687;-80
2022/03/12 01:09:50;;;;;;;12.63;7.17;;;-0.50;58.20;;;;;;4974881;28;20192;-80
2022/03/12 01:12:16;;;;;;;8.67;5.60;;;-0.50;57.90;;;;;;4975271;28;20652;-80
2022/03/12 01:14:41;;;;;;;10.00;4.97;;;-0.60;58.20;;;;;;4974116;28;20220;-80
2022/03/12 01:17:07;;;;;;;8.40;5.17;;;-0.50;58.80;;;;;;4974761;28;20204;-79
2022/03/12 01:19:36;;;;;;;10.93;5.63;;;-0.40;58.50;;;;;;4975020;28;20675;-79
2022/03/12 01:22:03;;;;;;;7.83;5.20;;;-0.40;58.40;;;;;;4990057;28;20177;-79
2022/03/12 01:24:29;;;;;;;6.23;4.30;;;-0.40;58.50;;;;;;4974410;28;20184;-80
2022/03/12 01:26:56;;;;;;;6.80;4.47;;;-0.40;58.40;;;;;;4973757;28;20204;-79
2022/03/12 01:29:21;;;;;;;8.10;4.70;;;-0.40;58.60;;;;;;4974151;28;20185;-79
2022/03/12 01:31:47;;;;;;;17.70;9.13;;;-0.40;58.70;;;;;;4973841;28;20188;-80
2022/03/12 01:34:12;;;;;;;24.57;12.47;;;-0.40;58.20;;;;;;4973743;28;20203;-80
2022/03/12 01:36:38;;;;;;;11.93;7.67;;;-0.40;58.60;;;;;;4974147;28;20312;-79
2022/03/12 01:39:04;;;;;;;15.20;6.93;;;-0.30;58.50;;;;;;4973659;28;20212;-80
2022/03/12 01:41:32;;;;;;;10.83;5.67;;;-0.30;58.50;;;;;;4975439;28;20185;-80
2022/03/12 01:44:00;;;;;;;10.13;5.53;;;-0.30;58.20;;;;;;4990832;28;20191;-80
2022/03/12 01:46:34;;;;;;;9.23;5.17;;;-0.40;57.80;;;;;;4975023;28;20223;-79
2022/03/12 01:49:06;;;;;;;5.67;3.60;;;-0.70;58.00;;;;;;4975536;28;20176;-80
2022/03/12 01:51:33;;;;;;;5.07;3.00;;;-0.90;59.10;;;;;;4990103;28;20220;-80
2022/03/12 01:54:02;;;;;;;5.27;3.27;;;-0.90;58.80;;;;;;4990185;28;20204;-79
2022/03/12 01:56:29;;;;;;;4.93;3.40;;;-1.00;58.90;;;;;;4958260;28;20209;-79
2022/03/12 01:58:58;;;;;;;5.53;3.60;;;-1.00;59.70;;;;;;4990792;28;20223;-79
2022/03/12 02:01:27;;;;;;;7.10;3.80;;;-0.90;60.40;;;;;;4989909;28;20185;-79
2022/03/12 02:03:54;;;;;;;24.50;11.13;;;-0.80;59.60;;;;;;4973598;28;20519;-79
2022/03/12 02:06:21;;;;;;;9.13;5.27;;;-0.70;59.30;;;;;;4958058;28;20209;-79
2022/03/12 02:08:49;;;;;;;9.03;4.17;;;-0.70;58.70;;;;;;4974751;28;20169;-79
2022/03/12 02:11:21;;;;;;;5.77;3.47;;;-0.90;57.90;;;;;;4958383;28;20239;-79
2022/03/12 02:13:47;;;;;;;7.93;3.67;;;-1.00;58.30;;;;;;4989997;28;20180;-79
2022/03/12 02:16:12;;;;;;;6.70;3.97;;;-1.10;58.30;;;;;;4957459;28;20205;-79
2022/03/12 02:18:39;;;;;;;5.07;3.60;;;-1.00;58.90;;;;;;4973416;28;20204;-80
2022/03/12 02:21:05;;;;;;;6.40;4.00;;;-0.90;58.80;;;;;;4973952;28;20228;-80
2022/03/12 02:23:48;;;;;;;5.03;3.73;;;-0.80;58.80;;;;;;4973417;28;20181;-79
2022/03/12 02:26:14;;;;;;;3.70;2.80;;;-0.70;57.60;;;;;;4975034;28;20197;-80
2022/03/12 02:28:39;;;;;;;4.37;3.10;;;-0.70;56.20;;;;;;4973434;28;20258;-80
2022/03/12 02:31:05;;;;;;;4.23;3.10;;;-0.60;56.10;;;;;;4973453;28;20236;-79
2022/03/12 02:33:31;;;;;;;5.90;3.60;;;-0.50;56.40;;;;;;4976300;28;20189;-79
2022/03/12 02:35:57;;;;;;;8.63;3.63;;;-0.50;57.40;;;;;;4993789;28;20185;-79
2022/03/12 02:38:27;;;;;;;7.23;3.40;;;-0.40;58.70;;;;;;4976714;28;20228;-79
2022/03/12 02:40:53;;;;;;;5.30;4.00;;;-0.40;59.20;;;;;;4992909;28;20727;-79
2022/03/12 02:43:23;;;;;;;6.63;4.20;;;-0.50;59.30;;;;;;4976456;28;20181;-79
2022/03/12 02:45:51;;;;;;;6.50;3.60;;;-0.50;59.40;;;;;;4977869;28;20615;-79
2022/03/12 02:48:18;;;;;;;6.00;3.90;;;-0.60;59.30;;;;;;4993185;28;20228;-79
2022/03/12 02:50:44;;;;;;;5.80;3.70;;;-0.60;59.30;;;;;;4993793;28;20215;-79
2022/03/12 02:53:09;;;;;;;5.07;3.57;;;-0.60;59.10;;;;;;4976592;28;20208;-79
2022/03/12 02:55:41;;;;;;;7.63;3.87;;;-0.60;59.70;;;;;;4976676;28;20181;-80
2022/03/12 02:58:10;;;;;;;8.23;3.83;;;-0.60;59.80;;;;;;4978289;28;20288;-79
2022/03/12 03:00:37;;;;;;;6.37;4.20;;;-0.60;59.80;;;;;;4992788;28;20623;-79
2022/03/12 03:03:05;;;;;;;7.77;4.27;;;-0.60;59.80;;;;;;4977644;28;20185;-79
2022/03/12 03:05:41;;;;;;;5.47;3.87;;;-0.60;60.20;;;;;;4976400;28;20185;-79
2022/03/12 03:08:09;;;;;;;5.53;3.83;;;-0.60;60.20;;;;;;4992766;28;20266;-79
2022/03/12 03:10:40;;;;;;;7.63;4.23;;;-0.60;60.00;;;;;;4976291;28;20188;-79
2022/03/12 03:13:18;;;;;;;10.03;4.23;;;-0.60;59.60;;;;;;4992963;28;20185;-79
2022/03/12 03:15:54;;;;;;;6.77;3.83;;;-0.80;60.80;;;;;;4960117;28;20211;-79
2022/03/12 03:18:22;;;;;;;5.43;3.87;;;-0.90;62.20;;;;;;4977144;28;20231;-79
2022/03/12 03:20:51;;;;;;;6.73;4.03;;;-0.90;62.40;;;;;;4976209;28;20188;-79
2022/03/12 03:23:17;;;;;;;6.27;3.70;;;-1.00;62.50;;;;;;4976047;28;20215;-79
2022/03/12 03:25:43;;;;;;;5.53;3.90;;;-1.00;63.20;;;;;;4976145;28;20188;-79
2022/03/12 03:28:08;;;;;;;9.90;4.13;;;-1.00;62.90;;;;;;4977099;28;20200;-79
2022/03/12 03:30:36;;;;;;;9.83;4.50;;;-1.00;62.60;;;;;;4977467;28;20177;-79
2022/03/12 03:33:05;;;;;;;7.70;4.53;;;-1.00;61.90;;;;;;4977577;28;20181;-79
2022/03/12 03:35:30;;;;;;;7.87;4.20;;;-0.90;61.90;;;;;;4975834;28;20274;-79
2022/03/12 03:37:57;;;;;;;4.77;3.53;;;-0.90;61.60;;;;;;4977339;28;20205;-79
2022/03/12 03:40:23;;;;;;;6.17;4.20;;;-0.90;61.30;;;;;;4976926;28;20208;-79
2022/03/12 03:42:49;;;;;;;9.93;4.83;;;-1.00;61.40;;;;;;4975810;28;20228;-79
2022/03/12 03:45:27;;;;;;;6.93;4.33;;;-1.00;61.90;;;;;;4975499;28;20173;-79
2022/03/12 03:47:55;;;;;;;9.47;4.47;;;-1.00;62.20;;;;;;4992447;28;20247;-79
2022/03/12 03:50:25;;;;;;;8.47;4.43;;;-1.00;61.60;;;;;;4960155;28;20181;-79
2022/03/12 03:52:58;;;;;;;9.10;5.33;;;-1.10;61.90;;;;;;4991666;28;20181;-79
2022/03/12 03:55:25;;;;;;;7.77;4.50;;;-1.00;62.10;;;;;;4975763;28;20204;-79
2022/03/12 03:57:53;;;;;;;9.87;4.43;;;-0.90;62.30;;;;;;4976315;28;20224;-79
2022/03/12 04:00:22;;;;;;;7.97;4.63;;;-1.00;62.10;;;;;;4959216;28;20216;-79
2022/03/12 04:03:04;;;;;;;6.80;3.53;;;-1.10;62.20;;;;;;4975699;28;20177;-79
2022/03/12 04:05:38;;;;;;;7.10;4.30;;;-1.00;61.90;;;;;;4991670;28;20173;-79
2022/03/12 04:08:07;;;;;;;8.17;4.73;;;-1.20;62.00;;;;;;4991601;28;20288;-79
2022/03/12 04:10:33;;;;;;;6.63;4.33;;;-1.10;62.30;;;;;;4975887;28;20177;-79
2022/03/12 04:12:59;;;;;;;9.47;4.50;;;-1.10;62.00;;;;;;4975003;28;20184;-79
2022/03/12 04:15:25;;;;;;;6.63;4.43;;;-1.10;62.10;;;;;;4975157;28;20177;-79
2022/03/12 04:17:51;;;;;;;8.47;4.90;;;-1.00;62.20;;;;;;4976506;28;20205;-79
2022/03/12 04:20:21;;;;;;;12.07;6.30;;;-0.90;62.30;;;;;;4975141;28;20224;-79
2022/03/12 04:22:48;;;;;;;9.27;5.90;;;-0.90;61.80;;;;;;4974936;28;20272;-79
2022/03/12 04:25:15;;;;;;;9.73;7.07;;;-1.20;62.50;;;;;;4976274;28;20172;-79
2022/03/12 04:27:44;;;;;;;10.07;6.97;;;-1.10;63.50;;;;;;4974555;28;20303;-79
2022/03/12 04:30:15;;;;;;;10.83;6.47;;;-1.00;63.70;;;;;;4991322;28;20193;-79
2022/03/12 04:32:45;;;;;;;8.20;5.90;;;-1.00;63.50;;;;;;4976504;28;20316;-79
2022/03/12 04:35:11;;;;;;;13.40;5.47;;;-0.90;63.30;;;;;;4974901;28;20272;-79
2022/03/12 04:37:37;;;;;;;7.30;4.80;;;-1.00;62.80;;;;;;4975065;28;20200;-79
2022/03/12 04:40:10;;;;;;;5.73;4.30;;;-1.10;62.50;;;;;;4974706;28;20274;-79
2022/03/12 04:42:42;;;;;;;6.17;4.53;;;-1.10;62.20;;;;;;4991570;28;20173;-79
2022/03/12 04:45:11;;;;;;;5.77;3.87;;;-1.10;62.30;;;;;;4991587;28;20223;-79
2022/03/12 04:47:41;;;;;;;6.30;4.30;;;-1.00;61.70;;;;;;4990894;28;20192;-79
2022/03/12 04:50:07;;;;;;;6.97;4.00;;;-1.00;61.50;;;;;;4990879;28;20192;-79
2022/03/12 04:52:35;;;;;;;30.50;12.20;;;-1.00;61.10;;;;;;4974587;28;20271;-79
2022/03/12 04:55:13;;;;;;;24.10;11.53;;;-1.10;62.40;;;;;;4973981;28;20205;-79
2022/03/12 04:57:39;;;;;;;54.30;23.27;;;-1.30;63.50;;;;;;4976100;28;20204;-79
2022/03/12 05:00:09;;;;;;;31.17;14.77;;;-1.20;63.70;;;;;;4958094;28;20283;-79
2022/03/12 05:02:34;;;;;;;24.27;11.63;;;-1.10;63.70;;;;;;4974426;28;20180;-79
2022/03/12 05:05:00;;;;;;;11.00;6.17;;;-1.10;63.20;;;;;;4974270;28;20263;-79
2022/03/12 05:07:26;;;;;;;9.00;5.60;;;-1.10;63.00;;;;;;4958693;28;20189;-79
2022/03/12 05:09:55;;;;;;;7.80;4.87;;;-1.20;63.30;;;;;;4990564;28;20185;-79
2022/03/12 05:12:22;;;;;;;7.53;4.90;;;-1.10;64.00;;;;;;4995734;28;20181;-79
2022/03/12 05:14:48;;;;;;;7.03;4.33;;;-1.00;64.00;;;;;;4980982;28;20207;-79
2022/03/12 05:17:16;;;;;;;9.20;4.93;;;-1.00;63.40;;;;;;4980904;28;20200;-79
2022/03/12 05:19:42;;;;;;;6.80;4.47;;;-1.10;63.40;;;;;;4995616;28;20204;-79
2022/03/12 05:22:07;;;;;;;8.83;5.17;;;-1.10;63.30;;;;;;4979794;28;20188;-79
2022/03/12 05:24:34;;;;;;;15.83;8.43;;;-1.00;63.70;;;;;;4995207;28;20667;-79
2022/03/12 05:27:00;;;;;;;10.67;5.37;;;-0.90;63.80;;;;;;4979328;28;20197;-79
2022/03/12 05:29:26;;;;;;;8.10;4.30;;;-1.00;64.40;;;;;;4980118;28;20289;-79
2022/03/12 05:31:53;;;;;;;7.60;4.77;;;-1.10;65.40;;;;;;4980113;28;20181;-79
2022/03/12 05:34:25;;;;;;;10.83;4.57;;;-1.10;65.80;;;;;;4980137;28;20207;-79
2022/03/12 05:36:50;;;;;;;7.93;4.90;;;-1.10;66.40;;;;;;4981229;28;20207;-79
2022/03/12 05:39:17;;;;;;;6.33;4.87;;;-1.10;66.90;;;;;;4995567;28;20268;-79
2022/03/12 05:41:45;;;;;;;9.63;4.70;;;-1.10;67.00;;;;;;4980281;28;20187;-79
2022/03/12 05:44:14;;;;;;;7.87;3.93;;;-0.90;66.30;;;;;;4980936;28;20181;-79
2022/03/12 05:46:40;;;;;;;8.40;5.00;;;-0.90;65.20;;;;;;4978873;28;20273;-79
2022/03/12 05:49:07;;;;;;;37.53;16.33;;;-1.00;64.90;;;;;;4979581;28;20235;-79
2022/03/12 05:51:33;;;;;;;11.87;6.43;;;-1.00;65.10;;;;;;4980003;28;20235;-79
2022/03/12 05:53:58;;;;;;;10.73;5.83;;;-1.30;66.10;;;;;;4980023;28;20228;-79
2022/03/12 05:56:24;;;;;;;8.97;5.47;;;-1.20;66.20;;;;;;4978357;28;20268;-79
2022/03/12 05:58:50;;;;;;;13.67;6.23;;;-1.20;65.30;;;;;;4978465;28;20212;-79
2022/03/12 06:01:20;;;;;;;10.77;6.17;;;-1.10;65.30;;;;;;4961981;28;20188;-79
2022/03/12 06:03:46;;;;;;;8.43;5.10;;;-1.10;65.20;;;;;;4977978;28;20241;-79
2022/03/12 06:06:13;;;;;;;7.53;4.83;;;-1.00;65.60;;;;;;4979456;28;20280;-79
2022/03/12 06:08:40;;;;;;;7.47;4.30;;;-0.90;65.20;;;;;;4982058;28;20180;-79
2022/03/12 06:11:06;;;;;;;7.27;3.83;;;-0.70;64.50;;;;;;4983227;28;20179;-79
2022/03/12 06:13:32;;;;;;;9.37;3.80;;;-0.60;63.70;;;;;;4982350;28;20264;-79
2022/03/12 06:16:00;;;;;;;7.63;4.27;;;-0.50;61.40;;;;;;4982427;28;20215;-79
2022/03/12 06:18:33;;;;;;;7.60;4.57;;;-0.60;61.50;;;;;;4997745;28;20191;-79
2022/03/12 06:20:59;;;;;;;7.03;3.97;;;-0.50;62.10;;;;;;4981277;28;20193;-79
2022/03/12 06:23:25;;;;;;;6.73;3.73;;;-0.50;61.60;;;;;;4981558;28;20177;-79
2022/03/12 06:26:17;;;;;;;8.70;3.67;;;-0.40;61.40;;;;;;4981432;28;20249;-79
2022/03/12 06:28:43;;;;;;;5.80;4.33;;;-0.30;61.10;;;;;;4981815;28;20177;-79
2022/03/12 06:31:12;;;;;;;7.67;5.20;;;-0.20;61.60;;;;;;4982891;28;20173;-79
2022/03/12 06:33:39;;;;;;;11.90;5.43;;;-0.10;62.50;;;;;;4997724;28;20212;-79
2022/03/12 06:36:05;;;;;;;13.20;5.53;;;0.00;63.00;;;;;;4980896;28;20185;-79
2022/03/12 06:38:32;;;;;;;8.37;5.37;;;0.10;63.20;;;;;;4982499;28;20177;-79
2022/03/12 06:40:58;;;;;;;7.00;4.40;;;0.20;62.60;;;;;;4981122;28;20177;-79
2022/03/12 06:43:28;;;;;;;7.57;4.97;;;0.30;61.70;;;;;;4980761;28;20264;-79
2022/03/12 06:45:56;;;;;;;6.40;4.37;;;0.30;61.30;;;;;;4996426;28;20183;-79
2022/03/12 06:48:22;;;;;;;8.67;4.53;;;0.30;60.90;;;;;;4982286;28;20201;-79
2022/03/12 06:50:48;;;;;;;6.73;4.00;;;0.40;61.10;;;;;;4982145;28;20173;-81
2022/03/12 06:53:15;;;;;;;10.33;4.37;;;0.50;60.70;;;;;;4964408;28;20597;-79
2022/03/12 06:55:41;;;;;;;11.20;4.43;;;0.50;60.40;;;;;;4981426;28;20183;-79
2022/03/12 06:58:07;;;;;;;6.50;4.47;;;0.60;60.90;;;;;;4995780;28;20205;-79
2022/03/12 07:00:33;;;;;;;7.10;4.47;;;0.80;60.70;;;;;;4963779;28;20267;-79
2022/03/12 07:02:59;;;;;;;6.73;4.10;;;0.80;60.00;;;;;;4979821;28;20594;-79
2022/03/12 07:05:25;;;;;;;9.40;5.17;;;0.80;60.60;;;;;;4981035;28;20183;-79
2022/03/12 07:07:52;;;;;;;7.90;4.47;;;0.80;61.30;;;;;;4980012;28;20283;-78
2022/03/12 07:10:18;;;;;;;9.47;5.13;;;0.90;61.50;;;;;;4981171;28;20177;-79
2022/03/12 07:12:44;;;;;;;10.63;4.73;;;1.10;61.50;;;;;;4980856;28;20212;-79
2022/03/12 07:15:14;;;;;;;9.70;4.60;;;1.20;62.60;;;;;;4995234;28;20203;-79
2022/03/12 07:17:46;;;;;;;6.60;4.50;;;1.30;63.40;;;;;;4978522;28;20197;-79
2022/03/12 07:20:13;;;;;;;7.53;4.90;;;1.40;64.10;;;;;;4979555;28;20223;-79
2022/03/12 07:22:39;;;;;;;9.33;4.87;;;1.50;64.50;;;;;;4980179;28;20177;-79
2022/03/12 07:25:07;;;;;;;18.70;5.03;;;1.70;64.00;;;;;;4978541;28;20250;-79
2022/03/12 07:27:32;;;;;;;9.40;4.63;;;1.80;62.30;;;;;;4979027;28;20204;-79
2022/03/12 07:30:00;;;;;;;8.83;4.60;;;1.80;61.20;;;;;;4978602;28;20185;-79
2022/03/12 07:32:28;;;;;;;5.80;4.37;;;1.80;60.50;;;;;;4995247;28;20200;-79
2022/03/12 07:34:54;;;;;;;8.63;5.80;;;2.00;60.60;;;;;;4994562;28;20231;-79
2022/03/12 07:37:21;;;;;;;17.17;8.23;;;2.10;59.70;;;;;;4978663;28;20201;-79
2022/03/12 07:39:47;;;;;;;8.33;4.67;;;2.20;59.10;;;;;;4994693;28;20208;-79
2022/03/12 07:42:13;;;;;;;14.10;7.87;;;2.40;58.60;;;;;;4994396;28;20177;-79
2022/03/12 07:44:39;;;;;;;8.70;5.93;;;2.50;58.20;;;;;;4977855;28;20184;-80
2022/03/12 07:47:05;;;;;;;9.67;5.73;;;2.50;58.30;;;;;;4994555;28;20223;-79
2022/03/12 07:49:31;;;;;;;7.40;4.60;;;2.40;58.50;;;;;;4977675;28;20324;-79
2022/03/12 07:51:57;;;;;;;7.07;4.33;;;2.30;59.00;;;;;;4977708;28;20220;-79
2022/03/12 07:54:23;;;;;;;9.10;5.30;;;2.20;59.90;;;;;;4979265;28;20173;-79
2022/03/12 07:56:49;;;;;;;8.67;5.00;;;2.40;59.30;;;;;;4961246;28;20208;-79
2022/03/12 07:59:15;;;;;;;8.37;4.63;;;2.50;58.80;;;;;;4977206;28;20699;-79
2022/03/12 08:01:40;;;;;;;12.30;5.73;;;2.70;59.00;;;;;;4961639;28;20369;-79
2022/03/12 08:04:07;;;;;;;11.77;8.00;;;2.80;58.60;;;;;;4977838;28;20195;-79
2022/03/12 08:06:34;;;;;;;9.97;5.23;;;2.80;57.90;;;;;;4993376;28;20215;-79
2022/03/12 08:09:00;;;;;;;7.57;5.00;;;2.90;57.50;;;;;;4993670;28;20252;-77
2022/03/12 08:11:29;;;;;;;10.07;4.53;;;3.00;56.90;;;;;;4986028;28;20271;-78
2022/03/12 08:14:02;;;;;;;9.00;4.60;;;3.00;55.90;;;;;;4985192;28;20230;-77
2022/03/12 08:16:29;;;;;;;11.50;5.43;;;3.30;55.90;;;;;;5010771;28;20291;-77
2022/03/12 08:18:55;;;;;;;9.57;6.03;;;3.50;56.70;;;;;;5010715;28;20211;-77
2022/03/12 08:21:20;;;;;;;8.57;5.30;;;3.60;54.70;;;;;;5011730;28;20211;-79
2022/03/12 08:23:47;;;;;;;11.33;4.23;;;3.70;53.50;;;;;;4997330;28;20188;-79
2022/03/12 08:26:13;;;;;;;6.77;4.10;;;3.80;53.30;;;;;;5012331;28;20204;-79
2022/03/12 08:28:40;;;;;;;6.00;3.97;;;3.80;47.70;;;;;;5011178;28;20539;-79
2022/03/12 08:31:07;;;;;;;6.57;4.07;;;4.10;47.60;;;;;;5010595;28;20180;-78
2022/03/12 08:33:34;;;;;;;7.60;4.70;;;4.20;46.50;;;;;;4995984;28;20172;-79
2022/03/12 08:36:02;;;;;;;9.10;4.20;;;4.30;48.10;;;;;;5011337;28;20211;-78
2022/03/12 08:38:28;;;;;;;4.63;3.70;;;4.40;47.10;;;;;;4996364;28;20203;-79
2022/03/12 08:41:08;;;;;;;5.03;4.00;;;4.50;45.40;;;;;;5011327;28;20632;-79
2022/03/12 08:43:36;;;;;;;4.83;3.93;;;4.60;42.10;;;;;;5010514;28;20174;-78
2022/03/12 08:46:03;;;;;;;7.23;3.60;;;4.70;41.40;;;;;;5011185;28;20187;-78
2022/03/12 08:48:30;;;;;;;5.67;4.20;;;4.70;41.20;;;;;;5010699;28;20231;-78
2022/03/12 08:50:55;;;;;;;3.70;3.30;;;4.90;42.60;;;;;;5010746;28;20260;-82
2022/03/12 08:53:39;;;;;;;5.47;3.57;;;5.00;40.50;;;;;;5010209;28;20226;-79
2022/03/12 08:56:05;;;;;;;4.00;3.60;;;5.10;39.70;;;;;;5010936;28;20168;-79
2022/03/12 08:58:32;;;;;;;8.80;5.73;;;5.20;40.80;;;;;;5011412;28;20180;-79
2022/03/12 09:00:59;;;;;;;7.80;5.03;;;5.00;37.60;;;;;;4995103;28;20168;-77
2022/03/12 09:03:25;;;;;;;6.63;4.80;;;4.70;36.60;;;;;;5010008;28;20707;-77
2022/03/12 09:05:59;;;;;;;4.43;3.93;;;4.70;37.00;;;;;;5009560;28;20240;-77
2022/03/12 09:08:25;;;;;;;4.53;3.77;;;4.70;38.10;;;;;;4993166;28;20661;-81
2022/03/12 09:10:59;;;;;;;5.27;3.83;;;4.80;38.20;;;;;;5009535;28;20177;-79
2022/03/12 09:13:25;;;;;;;5.13;3.33;;;5.10;40.10;;;;;;4994643;28;20164;-79
2022/03/12 09:15:54;;;;;;;8.50;3.83;;;5.20;39.30;;;;;;5009826;28;20187;-79
2022/03/12 09:18:20;;;;;;;7.00;3.53;;;5.30;38.10;;;;;;5009544;28;20176;-79
2022/03/12 09:20:47;;;;;;;4.80;3.57;;;5.50;38.50;;;;;;5009543;28;20686;-77
2022/03/12 09:23:19;;;;;;;6.00;4.03;;;5.50;37.40;;;;;;4994324;28;20194;-77
2022/03/12 09:25:46;;;;;;;5.13;3.83;;;5.60;37.60;;;;;;5009481;28;20176;-77
2022/03/12 09:28:13;;;;;;;6.03;4.60;;;5.60;39.20;;;;;;5009324;28;20200;-77
2022/03/12 09:30:39;;;;;;;5.43;4.10;;;5.70;36.90;;;;;;5009126;28;20252;-80
2022/03/12 09:33:05;;;;;;;5.13;3.70;;;5.60;37.00;;;;;;5009027;28;20271;-77
2022/03/12 09:35:33;;;;;;;5.60;4.10;;;5.70;37.10;;;;;;5010145;28;20195;-77
2022/03/12 09:37:59;;;;;;;5.13;3.73;;;5.80;37.90;;;;;;5008985;28;20202;-77
2022/03/12 09:40:25;;;;;;;6.73;5.13;;;5.90;36.90;;;;;;5008823;28;20196;-77
2022/03/12 09:42:51;;;;;;;5.43;4.07;;;5.90;36.20;;;;;;4997593;28;20245;-77
2022/03/12 09:45:19;;;;;;;5.83;3.73;;;6.00;37.30;;;;;;5013292;28;20196;-77
2022/03/12 09:47:45;;;;;;;7.03;4.93;;;6.10;36.10;;;;;;5011020;28;20228;-78
2022/03/12 09:50:11;;;;;;;7.63;5.00;;;6.00;36.20;;;;;;5011575;28;20230;-78
2022/03/12 09:52:36;;;;;;;11.33;7.10;;;5.90;35.90;;;;;;4996404;28;20176;-77
2022/03/12 09:55:03;;;;;;;7.83;5.53;;;6.00;36.60;;;;;;5013178;28;20182;-77
2022/03/12 09:57:29;;;;;;;7.37;5.10;;;5.80;36.10;;;;;;4997557;28;20207;-77
2022/03/12 09:59:56;;;;;;;5.67;4.10;;;5.80;37.00;;;;;;5013445;28;20295;-77
2022/03/12 10:02:22;;;;;;;8.57;5.40;;;6.00;36.90;;;;;;4997696;28;20528;-77
2022/03/12 10:04:49;;;;;;;6.70;4.20;;;5.90;36.30;;;;;;5012724;28;20188;-77
2022/03/12 10:07:14;;;;;;;10.23;5.83;;;6.00;36.10;;;;;;5012689;28;20272;-77
2022/03/12 10:09:41;;;;;;;6.10;4.50;;;6.00;35.60;;;;;;5013572;28;20184;-77
2022/03/12 10:12:07;;;;;;;7.13;4.47;;;5.80;35.80;;;;;;4997469;28;20234;-77
2022/03/12 10:14:34;;;;;;;7.83;4.67;;;5.90;36.20;;;;;;5012519;28;20323;-77
2022/03/12 10:17:02;;;;;;;8.63;5.60;;;5.90;35.90;;;;;;5013162;28;20208;-77
2022/03/12 10:19:38;;;;;;;10.87;6.37;;;5.90;35.80;;;;;;5012244;28;20231;-77
2022/03/12 10:22:05;;;;;;;6.70;3.87;;;6.20;36.70;;;;;;5012308;28;20188;-77
2022/03/12 10:24:33;;;;;;;6.33;4.53;;;6.40;36.80;;;;;;5012281;28;20176;-77
2022/03/12 10:26:58;;;;;;;5.63;3.97;;;6.50;35.70;;;;;;4997370;28;20207;-77
2022/03/12 10:29:24;;;;;;;5.22;4.30;;;6.50;34.80;;;;;;5012096;28;20181;-77
2022/03/12 10:31:49;;;;;;;8.33;3.97;;;6.60;35.60;;;;;;4996800;28;20279;-78
2022/03/12 10:34:26;;;;;;;7.40;5.37;;;6.50;34.50;;;;;;5012568;28;20192;-77
2022/03/12 10:36:55;;;;;;;10.00;6.30;;;6.70;35.10;;;;;;5012960;28;20239;-77
2022/03/12 10:39:32;;;;;;;6.20;4.50;;;6.50;35.00;;;;;;5012090;28;20227;-77
2022/03/12 10:42:07;;;;;;;5.13;4.13;;;6.70;36.40;;;;;;4997072;28;20168;-77
2022/03/12 10:44:42;;;;;;;8.07;4.05;;;6.90;36.70;;;;;;5012937;28;20184;-79
2022/03/12 10:47:22;;;;;;;5.75;4.30;;;6.90;34.90;;;;;;5014480;28;20622;-79
2022/03/12 10:50:02;;;;;;;5.67;3.50;;;7.00;34.80;;;;;;5014727;28;20267;-80
2022/03/12 10:52:32;;;;;;;7.35;4.35;;;7.00;36.30;;;;;;5014403;28;20215;-80
2022/03/12 10:55:28;;;;;;;6.97;4.90;;;7.10;35.00;;;;;;4998407;28;20234;-80
2022/03/12 10:57:58;;;;;;;5.50;4.53;;;6.90;34.60;;;;;;4998122;28;20195;-80
2022/03/12 11:00:25;;;;;;;5.32;3.95;;;7.00;35.10;;;;;;4997980;28;20212;-80
2022/03/12 11:02:54;;;;;;;6.07;4.80;;;7.10;35.60;;;;;;5015136;28;20621;-80
2022/03/12 11:05:35;;;;;;;7.85;4.35;;;7.00;34.60;;;;;;5015187;28;20179;-80
2022/03/12 11:08:27;;;;;;;4.90;4.25;;;7.20;35.40;;;;;;5013958;28;20283;-80
2022/03/12 11:10:58;;;;;;;8.93;4.82;;;7.20;34.50;;;;;;4997824;28;20189;-80
2022/03/12 11:13:49;;;;;;;5.95;3.97;;;7.20;34.90;;;;;;4997465;28;20658;-80
2022/03/12 11:16:32;;;;;;;5.07;4.40;;;7.30;34.40;;;;;;4998545;28;20196;-79
2022/03/12 11:19:05;;;;;;;5.00;4.30;;;7.40;34.80;;;;;;5014236;28;20212;-80
2022/03/12 11:21:40;;;;;;;5.68;4.05;;;7.40;34.60;;;;;;5013565;28;20274;-80
2022/03/12 11:24:25;;;;;;;5.70;3.92;;;7.50;34.50;;;;;;4999230;28;20168;-80
2022/03/12 11:27:34;;;;;;;5.10;3.80;;;7.50;34.00;;;;;;5013943;28;20200;-80
2022/03/12 11:30:09;;;;;;;6.43;4.20;;;7.70;34.70;;;;;;4999761;28;20172;-80
2022/03/12 11:32:45;;;;;;;5.78;4.47;;;7.70;34.00;;;;;;5013720;28;20238;-80
2022/03/12 11:35:15;;;;;;;4.20;3.80;;;7.70;33.90;;;;;;4998040;28;20172;-80
2022/03/12 11:37:42;;;;;;;6.75;4.80;;;7.80;34.90;;;;;;5013365;28;20209;-80
2022/03/12 11:40:19;;;;;;;5.65;4.40;;;7.80;34.50;;;;;;5012838;28;20613;-77
2022/03/12 11:42:47;;;;;;;5.40;4.47;;;8.00;35.80;;;;;;5011682;28;20506;-77
2022/03/12 11:45:37;;;;;;;13.18;5.18;;;8.10;34.70;;;;;;4995691;28;20296;-77
2022/03/12 11:48:03;;;;;;;8.55;5.15;;;8.00;33.80;;;;;;4995148;28;20204;-77
2022/03/12 11:53:53;;;;;;;9.15;3.90;;;8.10;35.90;;;;;;4995888;28;20271;-77
2022/03/12 11:57:16;;;;;;;7.78;5.00;;;8.20;35.00;;;;;;5010896;28;20204;-77
2022/03/12 11:59:56;;;;;;;5.50;4.50;;;8.30;35.50;;;;;;4994231;28;20200;-77
2022/03/12 12:02:34;;;;;;;6.65;4.38;;;8.30;34.20;;;;;;4995763;28;20184;-77
2022/03/12 12:05:06;;;;;;;11.65;7.55;;;8.30;35.60;;;;;;5010659;28;20184;-77
2022/03/12 12:07:36;;;;;;;6.35;5.20;;;8.30;34.30;;;;;;5010228;28;20223;-77
2022/03/12 12:10:04;;;;;;;6.38;4.88;;;8.30;35.00;;;;;;5010370;28;20725;-77
2022/03/12 12:12:32;;;;;;;5.80;4.45;;;8.30;34.20;;;;;;5010265;28;20191;-81
2022/03/12 12:14:58;;;;;;;7.18;5.57;;;8.20;34.10;;;;;;5010546;28;20191;-77
2022/03/12 12:17:25;;;;;;;8.50;5.75;;;8.20;34.20;;;;;;5010917;28;20290;-77
2022/03/12 12:19:51;;;;;;;10.07;5.85;;;8.30;34.50;;;;;;5010100;28;20211;-77
2022/03/12 12:22:18;;;;;;;9.45;6.40;;;8.30;35.20;;;;;;5010367;28;20203;-77
2022/03/12 12:24:45;;;;;;;9.98;5.25;;;8.40;34.20;;;;;;4994916;28;20153;-78
2022/03/12 12:27:12;;;;;;;11.60;7.40;;;8.40;34.90;;;;;;5010059;28;20204;-77
2022/03/12 12:29:48;;;;;;;8.68;6.30;;;8.30;34.30;;;;;;5010647;28;20295;-77
2022/03/12 12:36:05;;;;;;;5.78;4.95;;;8.50;36.60;;;;;;4995069;28;20163;-77
2022/03/12 12:41:55;;;;;;;9.68;5.53;;;8.70;35.00;;;;;;4995131;28;20199;-77
2022/03/12 12:44:39;;;;;;;7.53;5.13;;;8.70;35.40;;;;;;4993634;28;20176;-77
2022/03/12 12:47:24;;;;;;;6.05;4.72;;;8.80;35.50;;;;;;4994812;28;20196;-77
2022/03/12 12:50:02;;;;;;;8.00;5.30;;;8.90;35.00;;;;;;5010642;28;20164;-77
2022/03/12 12:52:32;;;;;;;7.57;5.55;;;8.80;34.40;;;;;;5009762;28;20172;-78
2022/03/12 12:55:05;;;;;;;9.45;5.97;;;8.80;35.00;;;;;;5009847;28;20259;-77
2022/03/12 12:57:47;;;;;;;7.47;5.68;;;8.80;34.30;;;;;;4994476;28;20192;-78
2022/03/12 13:00:54;;;;;;;8.02;5.65;;;8.80;35.30;;;;;;5009563;28;20192;-77
2022/03/12 13:03:22;;;;;;;7.80;5.60;;;8.90;35.00;;;;;;4993261;28;20169;-77
2022/03/12 13:05:58;;;;;;;10.32;5.80;;;9.00;35.90;;;;;;5009807;28;20178;-78
2022/03/12 13:08:44;;;;;;;12.50;5.95;;;9.10;34.80;;;;;;4994367;28;20168;-78
2022/03/12 13:11:33;;;;;;;8.27;6.22;;;9.10;35.80;;;;;;5009841;28;20172;-77